Ana Sayfa
METAR-TAF:

METAR-TAF

Havaalanları :

Kuveyt, Kuveyt

Enlem: 29-13N, Boylam: 047-59E, yükseklik: 55 m

Güncel hava durumu gözlemi

Rapor saat 07:00 UTC de 33 dakika önce yapıldı.
Rüzgar batı/kuzeybatıdan 14 kt
Sıcaklık 18°C
Nem 22%
Basınç 1017 hPa
Görüş mesafesi 10 km veya daha fazla
1500 m altında bulut yok ve kümülonimbus yok

METAR: OKBK 200700Z 30014KT CAVOK 18/M04 Q1017 NOSIG

Saat: 10:33 (07:33 UTC)

Tahmin

Rapor saat 04:45 UTC de 2 saat ve 48 dakika önce yapıldı.
Ayın 20'si saat 06 UTC'den ayın 21'si saat 12 UTC'ye kadar geçerli Tahmin
Rüzgar kuzey/kuzeybatıdan 10 kt ve 20 kt'a kadar ani rüzgarlar
Görüş mesafesi: 7000 m
Açık gökyüzü

TAF: OKBK 200445Z 2006/2112 33010G20KT 7000 SKC

4.000'den fazla havaalanı için hava durumu gözlemleri ve tahminleri (METAR ve TAF raporları).

Kullanılabilir istasyonlar harita üzerinde sarı ve kırmızı noktalarla gösterilir.

İstasyonun adını görmek için fareyi noktanın üzerinde gezdirin.

Sonrasında hava gözlem ve tahminlerini görmek için tıklayın.

Haritayı değiştirmek için: yaklaştırmak için siyah artı işaretli yeşil düğmeye ve uzaklaştırmak için de eksi işaretli düğmeye hızla tıklayın; bitişik haritalar için yeşil okları kullanın.


METAR-TAF: